createdAt,value
2023-11-04T00:00:05.840Z,5.37
2023-11-04T00:02:34.322Z,7.40
2023-11-04T00:05:02.977Z,6.00
2023-11-04T00:07:31.390Z,8.00
2023-11-04T00:09:59.784Z,9.20
2023-11-04T00:12:31.146Z,7.13
2023-11-04T00:14:59.562Z,8.50
2023-11-04T00:17:29.230Z,6.03
2023-11-04T00:19:57.732Z,9.00
2023-11-04T00:22:26.404Z,5.90
2023-11-04T00:24:55.705Z,7.30
2023-11-04T00:27:24.361Z,7.17
2023-11-04T00:29:52.780Z,5.37
2023-11-04T00:32:22.049Z,5.20
2023-11-04T00:35:10.823Z,6.63
2023-11-04T00:37:59.128Z,8.60
2023-11-04T00:40:47.447Z,5.40
2023-11-04T00:43:36.332Z,8.63
2023-11-04T00:46:24.625Z,4.53
2023-11-04T00:49:13.033Z,5.47
2023-11-04T00:52:01.923Z,6.00
2023-11-04T00:54:50.258Z,6.53
2023-11-04T00:57:40.274Z,5.60
2023-11-04T01:00:28.729Z,4.70
2023-11-04T01:03:17.668Z,7.23
2023-11-04T01:06:06.889Z,5.93
2023-11-04T01:08:55.288Z,5.07
2023-11-04T01:11:46.412Z,7.10
2023-11-04T01:14:35.747Z,4.77
2023-11-04T01:17:24.065Z,6.47
2023-11-04T01:20:13.265Z,4.27
2023-11-04T01:23:01.559Z,5.90
2023-11-04T01:25:49.887Z,6.67
2023-11-04T01:28:38.215Z,7.53
2023-11-04T01:31:27.255Z,7.13
2023-11-04T01:34:15.762Z,5.50
2023-11-04T01:37:04.208Z,6.93
2023-11-04T01:39:52.530Z,5.83
2023-11-04T01:42:46.311Z,3.80
2023-11-04T01:45:34.640Z,5.50
2023-11-04T01:48:23.194Z,4.30
2023-11-04T01:51:18.779Z,3.27
2023-11-04T01:54:07.528Z,4.03
2023-11-04T01:56:56.887Z,5.90
2023-11-04T01:59:45.308Z,4.40
2023-11-04T02:02:34.606Z,4.00
2023-11-04T02:05:23.495Z,2.57
2023-11-04T02:08:11.900Z,4.57
2023-11-04T02:11:00.347Z,5.50
2023-11-04T02:13:48.751Z,5.80
2023-11-04T02:16:37.758Z,5.57
2023-11-04T02:19:26.248Z,6.27
2023-11-04T02:22:15.157Z,5.83
2023-11-04T02:25:03.465Z,3.17
2023-11-04T02:27:51.835Z,3.73
2023-11-04T02:30:40.199Z,4.50
2023-11-04T02:33:28.569Z,6.00
2023-11-04T02:36:17.219Z,3.23
2023-11-04T02:39:05.887Z,4.60
2023-11-04T02:41:55.042Z,5.63
2023-11-04T02:44:45.645Z,2.73
2023-11-04T02:47:34.708Z,2.73
2023-11-04T02:50:23.629Z,3.00
2023-11-04T02:53:12.043Z,4.93
2023-11-04T02:56:00.331Z,3.00
2023-11-04T02:58:49.041Z,4.83
2023-11-04T03:01:37.468Z,2.73
2023-11-04T03:04:27.353Z,4.83
2023-11-04T03:07:15.833Z,4.80
2023-11-04T03:10:06.697Z,4.03
2023-11-04T03:12:55.270Z,1.47
2023-11-04T03:15:43.992Z,2.47
2023-11-04T03:18:32.404Z,4.60
2023-11-04T03:21:21.148Z,4.27
2023-11-04T03:24:10.622Z,3.13
2023-11-04T03:27:00.567Z,4.87
2023-11-04T03:29:48.933Z,4.53
2023-11-04T03:32:37.745Z,3.13
2023-11-04T03:35:26.140Z,3.40
2023-11-04T03:38:14.469Z,3.53
2023-11-04T03:41:03.009Z,2.87
2023-11-04T03:43:54.269Z,3.80
2023-11-04T03:46:42.590Z,4.33
2023-11-04T03:49:30.920Z,6.77
2023-11-04T03:52:19.256Z,4.67
2023-11-04T03:55:08.000Z,4.70
2023-11-04T03:57:56.371Z,3.20
2023-11-04T04:00:45.911Z,6.57
2023-11-04T04:03:34.270Z,1.80
2023-11-04T04:06:23.321Z,2.23
2023-11-04T04:09:11.634Z,3.40
2023-11-04T04:11:59.977Z,3.10
2023-11-04T04:14:48.287Z,5.60
2023-11-04T04:17:36.675Z,4.37
2023-11-04T04:20:24.993Z,3.60
2023-11-04T04:23:13.488Z,4.40
2023-11-04T04:26:01.991Z,2.03
2023-11-04T04:28:50.515Z,3.23
2023-11-04T04:31:38.841Z,3.40
2023-11-04T04:34:27.129Z,3.47
2023-11-04T04:37:16.152Z,1.77
2023-11-04T04:40:07.309Z,2.67
2023-11-04T04:42:55.686Z,6.40
2023-11-04T04:45:44.035Z,3.90
2023-11-04T04:48:32.633Z,2.70
2023-11-04T04:51:21.544Z,7.80
2023-11-04T04:54:10.464Z,4.00
2023-11-04T04:56:58.759Z,2.17
2023-11-04T04:59:47.070Z,3.47
2023-11-04T05:02:36.200Z,4.27
2023-11-04T05:05:24.585Z,4.13
2023-11-04T05:08:12.926Z,1.67
2023-11-04T05:11:01.264Z,2.40
2023-11-04T05:13:49.825Z,5.33
2023-11-04T05:16:40.424Z,2.27
2023-11-04T05:19:28.740Z,3.07
2023-11-04T05:22:17.046Z,1.73
2023-11-04T05:25:06.343Z,1.97
2023-11-04T05:27:54.717Z,1.30
2023-11-04T05:30:43.095Z,2.77
2023-11-04T05:33:31.628Z,3.13
2023-11-04T05:36:20.903Z,3.03
2023-11-04T05:39:09.741Z,2.70
2023-11-04T05:41:58.285Z,2.73
2023-11-04T05:44:46.684Z,3.50
2023-11-04T05:47:35.749Z,4.00
2023-11-04T05:50:24.248Z,2.33
2023-11-04T05:53:12.565Z,2.87
2023-11-04T05:56:00.898Z,1.23
2023-11-04T05:58:49.959Z,1.50
2023-11-04T06:01:38.250Z,2.87
2023-11-04T06:04:26.675Z,1.53
2023-11-04T06:07:15.091Z,1.77
2023-11-04T06:10:10.504Z,3.47
2023-11-04T06:12:58.837Z,1.63
2023-11-04T06:15:47.167Z,2.30
2023-11-04T06:18:39.483Z,2.17
2023-11-04T06:21:27.823Z,2.03
2023-11-04T06:24:16.309Z,1.40
2023-11-04T06:27:04.665Z,2.37
2023-11-04T06:29:52.977Z,2.43
2023-11-04T06:32:41.329Z,3.67
2023-11-04T06:35:30.881Z,1.90
2023-11-04T06:38:19.210Z,1.60
2023-11-04T06:41:18.800Z,3.90
2023-11-04T06:44:07.410Z,2.47
2023-11-04T06:46:55.708Z,4.10
2023-11-04T06:49:43.999Z,1.27
2023-11-04T06:52:41.419Z,3.27
2023-11-04T06:55:10.457Z,1.37
2023-11-04T06:57:38.903Z,3.90
2023-11-04T07:00:10.433Z,2.33
2023-11-04T07:02:46.858Z,1.73
2023-11-04T07:05:15.488Z,1.60
2023-11-04T07:07:43.934Z,1.93
2023-11-04T07:10:12.347Z,1.10
2023-11-04T07:12:40.893Z,1.30
2023-11-04T07:15:10.582Z,2.30
2023-11-04T07:17:39.066Z,2.57
2023-11-04T07:20:12.835Z,1.33
2023-11-04T07:22:41.183Z,2.00
2023-11-04T07:25:10.429Z,2.03
2023-11-04T07:27:38.938Z,1.70
2023-11-04T07:30:08.850Z,3.03
2023-11-04T07:32:37.305Z,2.03
2023-11-04T07:35:06.339Z,4.07
2023-11-04T07:37:34.695Z,0.73
2023-11-04T07:40:03.099Z,1.10
2023-11-04T07:42:31.574Z,1.70
2023-11-04T07:44:59.932Z,3.60
2023-11-04T07:47:28.335Z,4.27
2023-11-04T07:49:56.830Z,1.10
2023-11-04T07:52:25.186Z,1.03
2023-11-04T07:54:53.680Z,2.37
2023-11-04T07:57:22.066Z,1.60
2023-11-04T07:59:50.414Z,0.83
2023-11-04T08:02:18.797Z,1.10
2023-11-04T08:04:47.194Z,2.70
2023-11-04T08:07:17.032Z,2.73
2023-11-04T08:09:45.451Z,2.30
2023-11-04T08:12:13.872Z,1.47
2023-11-04T08:14:43.277Z,1.10
2023-11-04T08:17:12.173Z,2.73
2023-11-04T08:19:40.713Z,0.90
2023-11-04T08:22:12.293Z,1.57
2023-11-04T08:24:40.757Z,3.43
2023-11-04T08:27:09.397Z,1.90
2023-11-04T08:29:38.288Z,3.93
2023-11-04T08:32:07.153Z,1.43
2023-11-04T08:34:37.766Z,2.70
2023-11-04T08:37:06.415Z,1.00
2023-11-04T08:39:34.848Z,1.20
2023-11-04T08:42:03.430Z,1.10
2023-11-04T08:44:31.826Z,1.27
2023-11-04T08:47:00.216Z,2.47
2023-11-04T08:49:28.910Z,2.63
2023-11-04T08:51:58.566Z,3.00
2023-11-04T08:54:27.018Z,1.63
2023-11-04T08:56:55.582Z,1.73
2023-11-04T08:59:23.991Z,0.90
2023-11-04T09:01:53.498Z,1.57
2023-11-04T09:04:28.157Z,1.43
2023-11-04T09:06:58.643Z,1.60
2023-11-04T09:09:27.666Z,1.90
2023-11-04T09:11:57.916Z,1.47
2023-11-04T09:14:26.783Z,1.20
2023-11-04T09:16:57.652Z,1.77
2023-11-04T09:19:26.675Z,0.83
2023-11-04T09:21:55.136Z,0.90
2023-11-04T09:24:23.729Z,3.20
2023-11-04T09:26:52.351Z,1.70
2023-11-04T09:29:21.278Z,1.90
2023-11-04T09:31:50.440Z,3.30
2023-11-04T09:34:19.034Z,0.57
2023-11-04T09:36:47.506Z,1.17
2023-11-04T09:39:18.426Z,1.27
2023-11-04T09:41:48.239Z,2.57
2023-11-04T09:44:16.619Z,2.83
2023-11-04T09:46:45.882Z,2.30
2023-11-04T09:49:14.977Z,1.73
2023-11-04T09:51:45.482Z,3.80
2023-11-04T09:54:16.161Z,0.87
2023-11-04T09:56:44.634Z,4.20
2023-11-04T09:59:13.243Z,1.37
2023-11-04T10:01:42.708Z,4.00
2023-11-04T10:04:11.574Z,0.90
2023-11-04T10:06:40.026Z,0.93
2023-11-04T10:09:08.457Z,1.70
2023-11-04T10:11:36.891Z,1.23
2023-11-04T10:14:05.255Z,1.97
2023-11-04T10:16:33.871Z,3.10
2023-11-04T10:19:02.609Z,1.00
2023-11-04T10:21:31.407Z,1.83
2023-11-04T10:24:00.447Z,1.80
2023-11-04T10:26:30.106Z,1.90
2023-11-04T10:28:58.613Z,1.83
2023-11-04T10:31:29.053Z,1.40
2023-11-04T10:34:04.859Z,1.00
2023-11-04T10:36:38.294Z,2.27
2023-11-04T10:39:07.846Z,1.37
2023-11-04T10:41:46.574Z,1.37
2023-11-04T10:44:23.759Z,3.00
2023-11-04T10:47:17.681Z,1.13
2023-11-04T10:50:14.646Z,1.50
2023-11-04T10:53:27.856Z,1.03
2023-11-04T10:56:33.664Z,2.73
2023-11-04T10:59:18.358Z,1.80
2023-11-04T11:01:52.907Z,1.50
2023-11-04T11:04:25.148Z,0.83
2023-11-04T11:06:54.940Z,0.93
2023-11-04T11:09:25.857Z,1.30
2023-11-04T11:12:15.461Z,1.23
2023-11-04T11:14:55.402Z,3.07
2023-11-04T11:17:35.651Z,1.23
2023-11-04T11:20:04.338Z,1.30
2023-11-04T11:22:32.918Z,1.37
2023-11-04T11:25:03.357Z,2.30
2023-11-04T11:27:33.290Z,1.57
2023-11-04T11:30:12.300Z,0.97
2023-11-04T11:32:40.787Z,1.57
2023-11-04T11:35:10.214Z,2.10
2023-11-04T11:37:38.946Z,0.60
2023-11-04T11:40:15.587Z,1.10
2023-11-04T11:42:44.285Z,1.37
2023-11-04T11:45:12.748Z,0.90
2023-11-04T11:47:42.400Z,1.53
2023-11-04T11:50:11.145Z,1.17
2023-11-04T11:52:39.881Z,1.10
2023-11-04T11:55:11.491Z,2.97
2023-11-04T11:57:53.735Z,1.43
2023-11-04T12:00:22.373Z,3.57
2023-11-04T12:02:50.979Z,1.20
2023-11-04T12:05:19.648Z,0.80
2023-11-04T12:07:55.492Z,1.43
2023-11-04T12:10:25.733Z,2.07
2023-11-04T12:12:54.205Z,1.33
2023-11-04T12:15:23.817Z,1.80
2023-11-04T12:18:00.534Z,2.03
2023-11-04T12:20:32.229Z,1.87
2023-11-04T12:23:02.028Z,2.00
2023-11-04T12:25:30.602Z,4.57
2023-11-04T12:28:03.787Z,1.90
2023-11-04T12:30:32.230Z,2.70
2023-11-04T12:33:03.549Z,1.90
2023-11-04T12:35:32.370Z,2.53
2023-11-04T12:38:02.755Z,3.43
2023-11-04T12:40:33.875Z,2.57
2023-11-04T12:43:05.628Z,1.87
2023-11-04T12:45:35.214Z,1.20
2023-11-04T12:48:04.071Z,2.57
2023-11-04T12:50:33.304Z,2.87
2023-11-04T12:53:05.608Z,2.83
2023-11-04T12:55:34.366Z,2.40
2023-11-04T12:58:02.846Z,1.27
2023-11-04T13:00:32.117Z,1.30
2023-11-04T13:03:00.658Z,1.37
2023-11-04T13:05:29.227Z,1.50
2023-11-04T13:07:57.701Z,1.83
2023-11-04T13:10:27.039Z,1.30
2023-11-04T13:12:56.613Z,1.80
2023-11-04T13:15:25.603Z,1.93
2023-11-04T13:17:54.498Z,2.90
2023-11-04T13:20:23.221Z,2.33
2023-11-04T13:22:51.971Z,1.40
2023-11-04T13:25:23.210Z,2.00
2023-11-04T13:27:51.867Z,1.37
2023-11-04T13:30:20.632Z,1.63
2023-11-04T13:32:49.033Z,1.67
2023-11-04T13:35:19.919Z,1.20
2023-11-04T13:37:49.065Z,2.07
2023-11-04T13:40:17.627Z,2.93
2023-11-04T13:42:46.027Z,1.33
2023-11-04T13:45:14.608Z,1.27
2023-11-04T13:47:43.075Z,1.90
2023-11-04T13:50:12.055Z,1.63
2023-11-04T13:52:42.822Z,1.30
2023-11-04T13:55:11.579Z,1.00
2023-11-04T13:57:39.984Z,1.83
2023-11-04T14:00:09.565Z,2.17
2023-11-04T14:02:42.251Z,2.07
2023-11-04T14:05:12.909Z,1.10
2023-11-04T14:07:41.425Z,1.80
2023-11-04T14:10:11.330Z,2.00
2023-11-04T14:12:39.855Z,1.07
2023-11-04T14:15:09.306Z,1.03
2023-11-04T14:17:37.716Z,2.10
2023-11-04T14:20:09.969Z,2.77
2023-11-04T14:22:49.693Z,3.13
2023-11-04T14:25:21.039Z,1.83
2023-11-04T14:27:53.389Z,2.07
2023-11-04T14:30:24.289Z,2.63
2023-11-04T14:32:52.849Z,2.73
2023-11-04T14:35:21.283Z,1.43
2023-11-04T14:37:49.664Z,1.87
2023-11-04T14:40:21.253Z,2.47
2023-11-04T14:42:49.758Z,1.67
2023-11-04T14:45:18.343Z,1.40
2023-11-04T14:47:47.040Z,2.10
2023-11-04T14:50:16.022Z,1.20
2023-11-04T14:52:44.393Z,1.13
2023-11-04T14:55:12.848Z,1.83
2023-11-04T14:57:43.368Z,2.13
2023-11-04T15:00:17.368Z,1.53
2023-11-04T15:02:45.762Z,3.20
2023-11-04T15:05:14.496Z,2.67
2023-11-04T15:07:42.934Z,1.40
2023-11-04T15:10:11.860Z,1.50
2023-11-04T15:12:40.741Z,2.13
2023-11-04T15:15:09.638Z,1.60
2023-11-04T15:17:38.218Z,1.10
2023-11-04T15:20:07.682Z,2.20
2023-11-04T15:22:36.117Z,2.83
2023-11-04T15:25:04.670Z,1.87
2023-11-04T15:27:33.170Z,3.47
2023-11-04T15:30:03.270Z,1.20
2023-11-04T15:32:33.396Z,2.27
2023-11-04T15:35:02.035Z,2.90
2023-11-04T15:37:31.971Z,1.83
2023-11-04T15:40:00.393Z,2.00
2023-11-04T15:42:28.834Z,1.30
2023-11-04T15:44:57.274Z,1.23
2023-11-04T15:47:25.744Z,1.30
2023-11-04T15:49:54.156Z,2.93
2023-11-04T15:52:22.656Z,1.97
2023-11-04T15:54:52.918Z,2.97
2023-11-04T15:57:22.968Z,4.23
2023-11-04T15:59:56.007Z,2.30
2023-11-04T16:02:24.442Z,2.67
2023-11-04T16:04:53.308Z,3.90
2023-11-04T16:07:21.911Z,1.60
2023-11-04T16:09:50.448Z,1.20
2023-11-04T16:12:18.834Z,3.10
2023-11-04T16:14:47.189Z,1.30
2023-11-04T16:17:15.606Z,1.50
2023-11-04T16:19:43.971Z,1.53
2023-11-04T16:22:14.770Z,1.87
2023-11-04T16:24:43.270Z,4.80
2023-11-04T16:27:14.055Z,2.67
2023-11-04T16:29:44.030Z,2.30
2023-11-04T16:32:12.654Z,3.93
2023-11-04T16:34:41.496Z,1.83
2023-11-04T16:37:09.979Z,3.37
2023-11-04T16:39:42.859Z,1.63
2023-11-04T16:42:11.673Z,1.50
2023-11-04T16:44:40.250Z,2.83
2023-11-04T16:47:08.706Z,4.60
2023-11-04T16:49:39.171Z,2.23
2023-11-04T16:52:07.836Z,2.10
2023-11-04T16:54:38.684Z,2.40
2023-11-04T16:57:07.312Z,2.50
2023-11-04T16:59:36.700Z,5.50
2023-11-04T17:02:05.105Z,4.37
2023-11-04T17:04:33.626Z,2.30
2023-11-04T17:07:02.162Z,1.27
2023-11-04T17:09:31.747Z,3.00
2023-11-04T17:12:00.519Z,2.43
2023-11-04T17:14:32.149Z,3.10
2023-11-04T17:17:01.050Z,3.50
2023-11-04T17:19:29.568Z,1.20
2023-11-04T17:21:58.181Z,2.33
2023-11-04T17:24:29.518Z,1.20
2023-11-04T17:26:58.438Z,3.37
2023-11-04T17:29:26.909Z,3.33
2023-11-04T17:31:55.274Z,1.30
2023-11-04T17:34:23.807Z,2.40
2023-11-04T17:36:52.207Z,3.10
2023-11-04T17:39:20.639Z,1.53
2023-11-04T17:41:49.003Z,2.20
2023-11-04T17:44:17.366Z,1.50
2023-11-04T17:46:46.128Z,1.67
2023-11-04T17:49:14.560Z,1.50
2023-11-04T17:51:43.012Z,2.40
2023-11-04T17:54:11.431Z,1.40
2023-11-04T17:56:41.262Z,1.60
2023-11-04T17:59:09.645Z,1.63
2023-11-04T18:01:38.086Z,1.67
2023-11-04T18:04:07.452Z,2.10
2023-11-04T18:06:35.917Z,3.30
2023-11-04T18:09:05.385Z,1.50
2023-11-04T18:11:33.762Z,2.63
2023-11-04T18:14:02.117Z,2.57
2023-11-04T18:16:30.660Z,2.03
2023-11-04T18:18:59.145Z,1.93
2023-11-04T18:21:27.714Z,2.17
2023-11-04T18:23:56.092Z,2.00
2023-11-04T18:26:24.521Z,2.30
2023-11-04T18:28:52.975Z,5.80
2023-11-04T18:31:21.435Z,1.90
2023-11-04T18:33:52.375Z,2.03
2023-11-04T18:36:21.087Z,1.20
2023-11-04T18:38:49.521Z,3.07
2023-11-04T18:41:18.642Z,2.80
2023-11-04T18:43:47.036Z,3.20
2023-11-04T18:46:15.465Z,3.73
2023-11-04T18:48:43.977Z,2.27
2023-11-04T18:51:24.012Z,3.97
2023-11-04T18:53:52.534Z,2.60
2023-11-04T18:56:20.968Z,1.40
2023-11-04T18:58:49.866Z,2.70
2023-11-04T19:01:26.649Z,3.50
2023-11-04T19:03:55.108Z,3.90
2023-11-04T19:06:26.534Z,2.30
2023-11-04T19:08:55.994Z,4.30
2023-11-04T19:11:24.972Z,2.20
2023-11-04T19:13:54.060Z,2.23
2023-11-04T19:16:22.960Z,3.70
2023-11-04T19:18:51.524Z,3.77
2023-11-04T19:21:20.966Z,2.10
2023-11-04T19:23:49.484Z,2.30
2023-11-04T19:26:18.200Z,3.30
2023-11-04T19:28:46.585Z,1.50
2023-11-04T19:31:15.000Z,1.87
2023-11-04T19:33:43.451Z,2.07
2023-11-04T19:36:12.531Z,1.77
2023-11-04T19:38:41.751Z,2.03
2023-11-04T19:41:10.352Z,1.70
2023-11-04T19:43:38.798Z,2.20
2023-11-04T19:46:07.218Z,3.87
2023-11-04T19:48:35.856Z,1.40
2023-11-04T19:51:05.048Z,1.77
2023-11-04T19:53:33.428Z,3.37
2023-11-04T19:56:03.215Z,2.77
2023-11-04T19:58:31.599Z,2.17
2023-11-04T20:01:00.095Z,1.70
2023-11-04T20:03:28.774Z,2.20
2023-11-04T20:06:08.193Z,2.83
2023-11-04T20:08:41.142Z,2.50
2023-11-04T20:11:09.516Z,1.73
2023-11-04T20:13:37.915Z,2.93
2023-11-04T20:16:07.181Z,2.57
2023-11-04T20:18:35.606Z,2.20
2023-11-04T20:21:04.065Z,2.33
2023-11-04T20:23:32.490Z,3.80
2023-11-04T20:26:01.187Z,4.07
2023-11-04T20:28:29.701Z,1.80
2023-11-04T20:30:58.553Z,2.40
2023-11-04T20:33:26.955Z,3.53
2023-11-04T20:35:56.954Z,2.80
2023-11-04T20:38:26.005Z,2.60
2023-11-04T20:40:54.402Z,1.83
2023-11-04T20:43:24.013Z,3.43
2023-11-04T20:45:52.491Z,2.00
2023-11-04T20:48:22.777Z,2.10
2023-11-04T20:50:51.169Z,2.80
2023-11-04T20:53:19.585Z,1.97
2023-11-04T20:55:48.202Z,1.63
2023-11-04T20:58:16.623Z,1.67
2023-11-04T21:00:45.011Z,2.30
2023-11-04T21:03:13.447Z,2.13
2023-11-04T21:05:43.496Z,4.30
2023-11-04T21:08:13.213Z,1.77
2023-11-04T21:10:41.698Z,2.10
2023-11-04T21:13:11.809Z,1.30
2023-11-04T21:15:40.197Z,4.10
2023-11-04T21:18:09.600Z,1.70
2023-11-04T21:20:38.080Z,1.50
2023-11-04T21:23:06.949Z,1.20
2023-11-04T21:25:36.626Z,1.37
2023-11-04T21:28:07.097Z,2.33
2023-11-04T21:30:35.517Z,1.00
2023-11-04T21:33:05.389Z,1.30
2023-11-04T21:35:33.832Z,2.17
2023-11-04T21:38:02.231Z,0.80
2023-11-04T21:40:30.716Z,1.00
2023-11-04T21:42:59.140Z,1.13
2023-11-04T21:45:29.222Z,1.70
2023-11-04T21:47:58.335Z,1.57
2023-11-04T21:50:28.248Z,1.40
2023-11-04T21:53:00.860Z,1.47
2023-11-04T21:55:29.277Z,1.43
2023-11-04T21:57:57.720Z,1.83
2023-11-04T22:00:26.154Z,4.27
2023-11-04T22:02:54.583Z,1.93
2023-11-04T22:05:23.560Z,1.70
2023-11-04T22:07:52.166Z,0.90
2023-11-04T22:10:20.607Z,2.23
2023-11-04T22:12:49.017Z,3.43
2023-11-04T22:15:17.446Z,1.60
2023-11-04T22:17:45.951Z,3.63
2023-11-04T22:20:15.386Z,1.43
2023-11-04T22:22:43.827Z,2.13
2023-11-04T22:25:12.344Z,2.93
2023-11-04T22:27:40.713Z,2.13
2023-11-04T22:30:09.759Z,1.30
2023-11-04T22:32:38.202Z,0.80
2023-11-04T22:35:06.694Z,1.33
2023-11-04T22:37:35.296Z,1.20
2023-11-04T22:40:03.790Z,1.40
2023-11-04T22:42:32.193Z,2.30
2023-11-04T22:45:00.937Z,1.60
2023-11-04T22:47:29.890Z,2.10
2023-11-04T22:49:58.316Z,1.43
2023-11-04T22:52:26.750Z,2.37
2023-11-04T22:54:55.153Z,1.40
2023-11-04T22:57:23.534Z,1.33
2023-11-04T22:59:51.919Z,2.23
2023-11-04T23:02:20.304Z,2.17
2023-11-04T23:04:48.988Z,1.47
2023-11-04T23:07:18.462Z,1.20
2023-11-04T23:09:46.873Z,1.27
2023-11-04T23:12:16.391Z,1.87
2023-11-04T23:14:44.788Z,1.33
2023-11-04T23:17:13.436Z,1.20
2023-11-04T23:19:41.818Z,1.10
2023-11-04T23:22:10.189Z,2.90
2023-11-04T23:24:38.550Z,1.67
2023-11-04T23:27:07.105Z,1.37
2023-11-04T23:29:35.479Z,1.07
2023-11-04T23:32:03.834Z,1.50
2023-11-04T23:34:32.223Z,2.07
2023-11-04T23:37:00.699Z,1.40
2023-11-04T23:39:29.083Z,1.60
2023-11-04T23:41:57.565Z,3.23
2023-11-04T23:44:25.907Z,1.30
2023-11-04T23:46:54.366Z,2.37
2023-11-04T23:49:22.747Z,1.27
2023-11-04T23:51:51.231Z,1.23
2023-11-04T23:54:19.661Z,2.50
2023-11-04T23:56:48.658Z,0.90
2023-11-04T23:59:17.205Z,1.80
